createdAt,value
2022-12-03T00:02:16.565Z,24.52
2022-12-03T00:04:43.684Z,24.40
2022-12-03T00:07:10.704Z,37.35
2022-12-03T00:09:37.672Z,29.25
2022-12-03T00:12:04.839Z,25.95
2022-12-03T00:14:31.853Z,33.28
2022-12-03T00:16:58.969Z,25.63
2022-12-03T00:19:26.145Z,31.70
2022-12-03T00:21:53.123Z,28.80
2022-12-03T00:24:20.078Z,27.58
2022-12-03T00:26:47.186Z,29.92
2022-12-03T00:29:14.434Z,37.28
2022-12-03T00:31:42.278Z,25.38
2022-12-03T00:34:09.374Z,25.38
2022-12-03T00:36:36.369Z,28.20
2022-12-03T00:39:03.730Z,24.48
2022-12-03T00:41:30.724Z,29.60
2022-12-03T00:43:57.831Z,20.80
2022-12-03T00:46:25.561Z,34.92
2022-12-03T00:48:53.272Z,30.88
2022-12-03T00:51:20.261Z,22.38
2022-12-03T00:53:47.293Z,25.80
2022-12-03T00:56:14.282Z,25.70
2022-12-03T00:58:41.356Z,26.83
2022-12-03T01:01:08.392Z,28.15
2022-12-03T01:03:35.532Z,23.42
2022-12-03T01:06:02.495Z,26.90
2022-12-03T01:08:29.801Z,21.58
2022-12-03T01:10:56.758Z,30.67
2022-12-03T01:13:23.717Z,33.83
2022-12-03T01:15:51.269Z,29.30
2022-12-03T01:18:18.351Z,33.05
2022-12-03T01:20:45.403Z,30.10
2022-12-03T01:23:13.386Z,22.10
2022-12-03T01:25:40.380Z,23.60
2022-12-03T01:28:07.341Z,24.10
2022-12-03T01:30:54.363Z,28.23
2022-12-03T01:33:21.467Z,22.15
2022-12-03T01:35:48.424Z,20.42
2022-12-03T01:38:15.403Z,31.33
2022-12-03T01:40:42.421Z,29.30
2022-12-03T01:43:09.448Z,25.23
2022-12-03T01:45:36.504Z,30.15
2022-12-03T01:48:03.590Z,30.77
2022-12-03T01:50:33.315Z,35.50
2022-12-03T01:53:02.591Z,30.55
2022-12-03T01:55:30.046Z,31.25
2022-12-03T01:58:02.207Z,23.58
2022-12-03T02:00:30.553Z,29.33
2022-12-03T02:03:01.186Z,35.65
2022-12-03T02:05:33.294Z,31.33
2022-12-03T02:08:02.556Z,35.97
2022-12-03T02:10:36.240Z,30.52
2022-12-03T02:13:06.658Z,27.80
2022-12-03T02:15:34.618Z,27.00
2022-12-03T02:18:02.127Z,26.67
2022-12-03T02:20:33.644Z,22.40
2022-12-03T02:23:14.218Z,26.38
2022-12-03T02:25:41.295Z,18.30
2022-12-03T02:28:09.798Z,25.60
2022-12-03T02:30:37.142Z,27.48
2022-12-03T02:33:04.390Z,26.02
2022-12-03T02:35:34.919Z,23.77
2022-12-03T02:38:17.438Z,24.30
2022-12-03T02:40:47.246Z,26.50
2022-12-03T02:43:16.872Z,20.90
2022-12-03T02:45:51.131Z,25.20
2022-12-03T02:48:21.334Z,25.75
2022-12-03T02:50:54.710Z,26.40
2022-12-03T02:53:28.793Z,30.10
2022-12-03T02:55:57.561Z,21.27
2022-12-03T02:58:26.164Z,27.90
2022-12-03T03:00:54.134Z,26.02
2022-12-03T03:03:22.473Z,26.25
2022-12-03T03:05:50.793Z,24.98
2022-12-03T03:08:18.873Z,25.80
2022-12-03T03:10:47.521Z,33.75
2022-12-03T03:13:17.926Z,23.25
2022-12-03T03:15:45.539Z,25.77
2022-12-03T03:18:14.163Z,27.63
2022-12-03T03:20:41.809Z,23.17
2022-12-03T03:23:11.647Z,29.52
2022-12-03T03:25:40.823Z,20.05
2022-12-03T03:28:08.318Z,22.63
2022-12-03T03:30:39.029Z,25.75
2022-12-03T03:33:06.608Z,21.85
2022-12-03T03:35:33.696Z,24.60
2022-12-03T03:38:00.961Z,22.10
2022-12-03T03:40:28.655Z,21.17
2022-12-03T03:42:58.305Z,21.13
2022-12-03T03:45:29.291Z,26.88
2022-12-03T03:47:59.225Z,22.10
2022-12-03T03:50:29.484Z,16.85
2022-12-03T03:52:57.749Z,15.25
2022-12-03T03:55:25.323Z,21.23
2022-12-03T03:57:52.347Z,11.23
2022-12-03T04:00:19.768Z,18.92
2022-12-03T04:02:47.057Z,20.13
2022-12-03T04:05:18.219Z,12.90
2022-12-03T04:07:45.423Z,23.00
2022-12-03T04:10:31.802Z,17.45
2022-12-03T04:12:59.987Z,23.08
2022-12-03T04:15:27.154Z,18.75
2022-12-03T04:18:12.545Z,16.48
2022-12-03T04:20:41.925Z,19.08
2022-12-03T04:23:09.365Z,17.00
2022-12-03T04:25:54.725Z,19.45
2022-12-03T04:28:40.258Z,11.65
2022-12-03T04:31:26.037Z,15.93
2022-12-03T04:34:11.972Z,18.48
2022-12-03T04:36:39.375Z,22.48
2022-12-03T04:39:06.531Z,17.15
2022-12-03T04:41:33.550Z,18.33
2022-12-03T04:44:19.202Z,20.08
2022-12-03T04:46:46.239Z,21.02
2022-12-03T04:49:13.281Z,16.48
2022-12-03T04:51:40.271Z,19.45
2022-12-03T04:54:07.315Z,19.63
2022-12-03T04:56:34.371Z,19.60
2022-12-03T04:59:01.546Z,25.23
2022-12-03T05:01:28.719Z,24.02
2022-12-03T05:03:55.838Z,17.05
2022-12-03T05:06:23.404Z,22.00
2022-12-03T05:08:50.473Z,13.57
2022-12-03T05:11:17.453Z,22.00
2022-12-03T05:13:44.481Z,23.63
2022-12-03T05:16:11.511Z,20.35
2022-12-03T05:18:38.748Z,16.45
2022-12-03T05:21:05.915Z,20.92
2022-12-03T05:23:32.919Z,24.52
2022-12-03T05:25:59.929Z,20.77
2022-12-03T05:28:26.980Z,13.73
2022-12-03T05:30:54.055Z,20.15
2022-12-03T05:33:21.626Z,20.33
2022-12-03T05:35:48.706Z,18.95
2022-12-03T05:38:15.926Z,24.45
2022-12-03T05:40:42.933Z,17.38
2022-12-03T05:43:09.970Z,24.55
2022-12-03T05:45:39.248Z,16.17
2022-12-03T05:48:08.476Z,25.25
2022-12-03T05:50:37.651Z,22.10
2022-12-03T05:53:18.679Z,21.88
2022-12-03T05:55:45.759Z,17.02
2022-12-03T05:58:12.826Z,27.05
2022-12-03T06:00:42.845Z,19.63
2022-12-03T06:03:11.097Z,20.98
2022-12-03T06:05:38.465Z,21.85
2022-12-03T06:08:05.565Z,22.00
2022-12-03T06:10:32.741Z,20.48
2022-12-03T06:12:59.815Z,19.73
2022-12-03T06:15:26.855Z,18.25
2022-12-03T06:17:53.790Z,17.92
2022-12-03T06:20:21.556Z,16.75
2022-12-03T06:22:49.995Z,23.60
2022-12-03T06:25:17.690Z,20.05
2022-12-03T06:27:45.417Z,25.38
2022-12-03T06:30:14.713Z,28.17
2022-12-03T06:32:41.851Z,23.15
2022-12-03T06:35:09.563Z,27.35
2022-12-03T06:37:36.563Z,23.65
2022-12-03T06:40:04.184Z,30.10
2022-12-03T06:42:31.292Z,18.20
2022-12-03T06:44:58.360Z,28.95
2022-12-03T06:47:25.423Z,24.63
2022-12-03T06:49:52.481Z,25.70
2022-12-03T06:52:19.563Z,22.02
2022-12-03T06:54:46.635Z,23.38
2022-12-03T06:57:13.719Z,24.77
2022-12-03T06:59:40.855Z,36.05
2022-12-03T07:02:07.902Z,21.73
2022-12-03T07:04:35.070Z,17.92
2022-12-03T07:07:02.080Z,22.98
2022-12-03T07:09:29.100Z,22.83
2022-12-03T07:11:56.298Z,15.30
2022-12-03T07:14:23.335Z,37.13
2022-12-03T07:16:50.402Z,26.20
2022-12-03T07:19:17.814Z,37.80
2022-12-03T07:21:44.991Z,26.02
2022-12-03T07:24:12.380Z,25.83
2022-12-03T07:26:39.483Z,38.40
2022-12-03T07:29:06.631Z,26.98
2022-12-03T07:31:33.717Z,25.02
2022-12-03T07:34:01.127Z,31.67
2022-12-03T07:36:28.141Z,25.88
2022-12-03T07:38:55.136Z,32.80
2022-12-03T07:41:22.206Z,39.75
2022-12-03T07:43:49.204Z,28.15
2022-12-03T07:46:16.388Z,35.03
2022-12-03T07:48:43.645Z,21.98
2022-12-03T07:51:15.313Z,29.98
2022-12-03T07:53:42.936Z,24.45
2022-12-03T07:56:10.094Z,33.00
2022-12-03T07:58:37.281Z,26.80
2022-12-03T08:01:04.335Z,29.50
2022-12-03T08:03:31.426Z,51.70
2022-12-03T08:05:58.510Z,23.90
2022-12-03T08:08:25.575Z,25.85
2022-12-03T08:10:52.803Z,26.48
2022-12-03T08:13:20.203Z,28.25
2022-12-03T08:15:47.494Z,23.75
2022-12-03T08:18:18.211Z,28.95
2022-12-03T08:20:48.273Z,27.27
2022-12-03T08:23:24.853Z,24.08
2022-12-03T08:25:53.195Z,23.95
2022-12-03T08:28:28.737Z,40.17
2022-12-03T08:31:03.553Z,26.15
2022-12-03T08:33:35.464Z,32.95
2022-12-03T08:36:16.756Z,31.25
2022-12-03T08:38:51.525Z,23.98
2022-12-03T08:41:39.141Z,29.42
2022-12-03T08:44:28.230Z,27.42
2022-12-03T08:47:14.024Z,25.95
2022-12-03T08:49:41.417Z,29.35
2022-12-03T08:52:20.905Z,46.33
2022-12-03T08:54:53.966Z,27.02
2022-12-03T08:57:34.708Z,24.13
2022-12-03T09:00:18.726Z,17.10
2022-12-03T09:02:49.653Z,40.78
2022-12-03T09:05:20.973Z,29.23
2022-12-03T09:07:48.079Z,33.33
2022-12-03T09:10:15.615Z,25.83
2022-12-03T09:12:42.658Z,27.58
2022-12-03T09:15:10.228Z,33.30
2022-12-03T09:17:37.571Z,27.67
2022-12-03T09:20:06.348Z,23.75
2022-12-03T09:22:33.714Z,32.95
2022-12-03T09:25:00.848Z,23.50
2022-12-03T09:27:28.332Z,28.75
2022-12-03T09:29:55.361Z,32.25
2022-12-03T09:32:22.521Z,34.20
2022-12-03T09:34:49.669Z,33.33
2022-12-03T09:37:16.666Z,29.88
2022-12-03T09:39:43.786Z,25.50
2022-12-03T09:42:11.552Z,26.45
2022-12-03T09:44:38.845Z,29.90
2022-12-03T09:47:06.939Z,27.50
2022-12-03T09:49:37.343Z,26.55
2022-12-03T09:52:06.020Z,26.85
2022-12-03T09:54:34.458Z,31.80
2022-12-03T09:57:04.299Z,37.30
2022-12-03T10:02:03.772Z,24.00
2022-12-03T10:04:30.973Z,23.45
2022-12-03T10:06:59.091Z,23.35
2022-12-03T10:09:29.231Z,33.90
2022-12-03T10:11:59.056Z,39.55
2022-12-03T10:14:27.736Z,55.95
2022-12-03T10:16:55.158Z,26.60
2022-12-03T10:19:26.178Z,33.45
2022-12-03T10:21:53.910Z,28.05
2022-12-03T10:24:32.684Z,30.90
2022-12-03T10:27:19.687Z,34.63
2022-12-03T10:29:58.241Z,29.63
2022-12-03T10:32:40.533Z,41.35
2022-12-03T10:35:15.795Z,35.60
2022-12-03T10:38:03.990Z,31.30
2022-12-03T10:40:36.136Z,29.25
2022-12-03T10:43:19.137Z,25.13
2022-12-03T10:46:18.069Z,36.53
2022-12-03T10:48:45.386Z,32.40
2022-12-03T10:51:21.944Z,33.67
2022-12-03T10:53:50.942Z,40.22
2022-12-03T10:56:26.438Z,39.33
2022-12-03T10:58:54.203Z,37.83
2022-12-03T11:01:26.370Z,25.83
2022-12-03T11:03:56.888Z,32.33
2022-12-03T11:06:24.225Z,23.35
2022-12-03T11:08:58.483Z,26.55
2022-12-03T11:11:27.829Z,32.67
2022-12-03T11:14:11.467Z,33.35
2022-12-03T11:16:41.498Z,24.73
2022-12-03T11:19:39.204Z,23.23
2022-12-03T11:22:07.419Z,29.67
2022-12-03T11:24:41.471Z,37.40
2022-12-03T11:27:11.842Z,23.83
2022-12-03T11:29:48.120Z,23.40
2022-12-03T11:32:43.021Z,26.88
2022-12-03T11:35:15.638Z,42.95
2022-12-03T11:37:43.101Z,61.85
2022-12-03T11:40:18.899Z,46.03
2022-12-03T11:47:47.152Z,29.85
2022-12-03T11:50:22.911Z,29.65
2022-12-03T11:55:24.976Z,21.70
2022-12-03T11:57:58.856Z,35.28
2022-12-03T12:00:26.315Z,32.13
2022-12-03T12:02:55.264Z,28.52
2022-12-03T12:05:35.705Z,41.67
2022-12-03T12:08:03.478Z,26.35
2022-12-03T12:10:47.498Z,47.83
2022-12-03T12:13:30.512Z,61.70
2022-12-03T12:16:02.617Z,32.72
2022-12-03T12:18:47.251Z,31.75
2022-12-03T12:21:47.851Z,34.17
2022-12-03T12:24:47.635Z,32.00
2022-12-03T12:27:14.826Z,35.67
2022-12-03T12:29:43.758Z,34.03
2022-12-03T12:32:10.842Z,29.13
2022-12-03T12:34:39.994Z,24.35
2022-12-03T12:37:32.794Z,30.48
2022-12-03T12:40:02.581Z,24.45
2022-12-03T12:42:34.398Z,26.30
2022-12-03T12:45:21.862Z,26.45
2022-12-03T12:48:07.476Z,29.67
2022-12-03T12:50:34.571Z,29.45
2022-12-03T12:53:25.226Z,22.40
2022-12-03T12:56:15.313Z,49.13
2022-12-03T12:58:43.340Z,26.98
2022-12-03T13:01:20.920Z,23.75
2022-12-03T13:03:52.288Z,26.98
2022-12-03T13:06:24.262Z,29.05
2022-12-03T13:08:52.233Z,25.55
2022-12-03T13:11:37.193Z,28.40
2022-12-03T13:14:22.685Z,21.75
2022-12-03T13:16:52.328Z,27.08
2022-12-03T13:19:24.065Z,25.25
2022-12-03T13:22:01.951Z,26.85
2022-12-03T13:24:45.503Z,28.13
2022-12-03T13:27:18.445Z,28.27
2022-12-03T13:30:15.967Z,22.55
2022-12-03T13:32:43.893Z,24.30
2022-12-03T13:35:17.584Z,27.02
2022-12-03T13:37:45.234Z,29.77
2022-12-03T13:40:29.011Z,27.23
2022-12-03T13:42:56.360Z,32.05
2022-12-03T13:45:26.495Z,27.63
2022-12-03T13:50:34.319Z,37.53
2022-12-03T13:53:24.260Z,29.77
2022-12-03T13:56:30.485Z,30.50
2022-12-03T13:59:00.474Z,24.20
2022-12-03T14:03:55.491Z,25.88
2022-12-03T14:06:23.584Z,28.15
2022-12-03T14:08:51.598Z,35.72
2022-12-03T14:11:39.052Z,36.70
2022-12-03T14:14:06.046Z,25.95
2022-12-03T14:16:33.284Z,21.00
2022-12-03T14:19:00.398Z,27.60
2022-12-03T14:21:27.519Z,21.40
2022-12-03T14:23:54.598Z,20.02
2022-12-03T14:26:21.561Z,24.65
2022-12-03T14:28:48.630Z,26.92
2022-12-03T14:31:15.798Z,24.05
2022-12-03T14:33:43.253Z,25.80
2022-12-03T14:36:10.400Z,24.70
2022-12-03T14:38:37.398Z,29.55
2022-12-03T14:41:04.558Z,22.92
2022-12-03T14:43:32.056Z,27.92
2022-12-03T14:45:59.541Z,24.63
2022-12-03T14:48:28.225Z,16.58
2022-12-03T14:50:55.262Z,34.53
2022-12-03T14:53:27.044Z,34.25
2022-12-03T14:55:56.038Z,25.98
2022-12-03T14:58:27.100Z,17.33
2022-12-03T15:00:54.260Z,19.35
2022-12-03T15:03:22.642Z,30.33
2022-12-03T15:05:49.658Z,24.58
2022-12-03T15:08:16.718Z,25.73
2022-12-03T15:10:43.821Z,26.02
2022-12-03T15:13:10.859Z,28.85
2022-12-03T15:15:37.807Z,25.80
2022-12-03T15:18:05.038Z,23.70
2022-12-03T15:20:33.341Z,29.50
2022-12-03T15:23:00.351Z,27.17
2022-12-03T15:25:27.568Z,24.52
2022-12-03T15:27:54.605Z,30.60
2022-12-03T15:30:21.702Z,26.23
2022-12-03T15:32:48.706Z,28.23
2022-12-03T15:35:18.637Z,25.33
2022-12-03T15:37:45.948Z,29.95
2022-12-03T15:40:13.476Z,25.70
2022-12-03T15:42:40.517Z,21.88
2022-12-03T15:45:12.055Z,27.02
2022-12-03T15:47:42.081Z,24.23
2022-12-03T15:50:09.411Z,28.85
2022-12-03T15:52:36.570Z,27.08
2022-12-03T15:55:03.735Z,29.10
2022-12-03T15:57:31.328Z,26.92
2022-12-03T15:59:58.378Z,31.65
2022-12-03T16:02:25.521Z,30.77
2022-12-03T16:04:52.507Z,35.28
2022-12-03T16:07:19.580Z,30.55
2022-12-03T16:09:46.526Z,30.10
2022-12-03T16:12:13.514Z,29.73
2022-12-03T16:14:40.565Z,32.58
2022-12-03T16:17:07.641Z,30.30
2022-12-03T16:19:35.040Z,31.42
2022-12-03T16:22:02.309Z,20.73
2022-12-03T16:24:29.396Z,22.75
2022-12-03T16:26:56.374Z,20.13
2022-12-03T16:29:23.612Z,18.55
2022-12-03T16:31:51.292Z,17.17
2022-12-03T16:34:18.282Z,15.45
2022-12-03T16:36:45.867Z,16.88
2022-12-03T16:39:13.226Z,20.17
2022-12-03T16:41:40.340Z,18.25
2022-12-03T16:44:07.309Z,17.77
2022-12-03T16:46:34.521Z,22.42
2022-12-03T16:49:01.683Z,20.95
2022-12-03T16:51:30.381Z,15.82
2022-12-03T16:53:57.453Z,12.40
2022-12-03T16:56:24.447Z,13.70
2022-12-03T16:58:51.485Z,14.73
2022-12-03T17:01:18.759Z,12.98
2022-12-03T17:03:45.789Z,10.95
2022-12-03T17:06:12.756Z,12.32
2022-12-03T17:08:43.102Z,14.02
2022-12-03T17:11:12.926Z,13.45
2022-12-03T17:13:39.979Z,11.02
2022-12-03T17:16:07.087Z,10.75
2022-12-03T17:18:34.208Z,14.00
2022-12-03T17:21:01.346Z,13.43
2022-12-03T17:23:28.411Z,10.77
2022-12-03T17:25:55.555Z,11.27
2022-12-03T17:28:22.618Z,11.15
2022-12-03T17:30:49.822Z,15.05
2022-12-03T17:33:16.866Z,12.75
2022-12-03T17:35:45.633Z,11.65
2022-12-03T17:38:12.733Z,10.95
2022-12-03T17:40:39.975Z,9.05
2022-12-03T17:43:06.989Z,15.07
2022-12-03T17:45:34.063Z,12.90
2022-12-03T17:48:01.143Z,10.60
2022-12-03T17:50:28.247Z,11.38
2022-12-03T17:52:55.272Z,13.60
2022-12-03T17:55:31.312Z,15.90
2022-12-03T17:58:04.604Z,18.20
2022-12-03T18:00:33.206Z,12.57
2022-12-03T18:03:00.189Z,12.48
2022-12-03T18:05:27.190Z,11.23
2022-12-03T18:07:54.240Z,10.25
2022-12-03T18:10:21.567Z,13.00
2022-12-03T18:12:48.981Z,13.30
2022-12-03T18:15:16.045Z,25.88
2022-12-03T18:17:43.036Z,15.60
2022-12-03T18:20:10.265Z,10.90
2022-12-03T18:22:37.577Z,13.75
2022-12-03T18:25:05.721Z,13.38
2022-12-03T18:27:32.806Z,9.60
2022-12-03T18:30:03.108Z,13.32
2022-12-03T18:32:31.045Z,13.25
2022-12-03T18:34:58.431Z,15.02
2022-12-03T18:37:28.853Z,14.30
2022-12-03T18:39:57.540Z,12.93
2022-12-03T18:42:25.276Z,14.13
2022-12-03T18:44:54.453Z,11.48
2022-12-03T18:47:24.412Z,15.82
2022-12-03T18:49:51.726Z,13.50
2022-12-03T18:52:22.267Z,12.57
2022-12-03T18:54:49.362Z,11.52
2022-12-03T18:57:17.496Z,13.38
2022-12-03T18:59:44.636Z,18.58
2022-12-03T19:02:38.633Z,11.48
2022-12-03T19:05:04.139Z,17.67
2022-12-03T19:07:31.215Z,12.55
2022-12-03T19:09:58.341Z,18.98
2022-12-03T19:12:25.375Z,17.58
2022-12-03T19:14:52.435Z,14.55
2022-12-03T19:17:19.543Z,11.35
2022-12-03T19:19:46.749Z,13.98
2022-12-03T19:22:13.732Z,14.38
2022-12-03T19:24:40.797Z,12.50
2022-12-03T19:27:07.762Z,16.50
2022-12-03T19:29:34.771Z,12.07
2022-12-03T19:32:01.975Z,12.07
2022-12-03T19:34:30.143Z,19.30
2022-12-03T19:36:57.249Z,15.13
2022-12-03T19:39:24.360Z,16.17
2022-12-03T19:41:51.392Z,15.52
2022-12-03T19:44:19.408Z,14.40
2022-12-03T19:46:46.461Z,14.68
2022-12-03T19:49:13.600Z,17.30
2022-12-03T19:51:40.625Z,18.25
2022-12-03T19:54:10.531Z,17.63
2022-12-03T19:59:05.168Z,17.08
2022-12-03T20:01:34.543Z,14.63
2022-12-03T20:04:03.357Z,17.05
2022-12-03T20:06:35.651Z,16.67
2022-12-03T20:09:07.397Z,17.98
2022-12-03T20:11:35.043Z,17.65
2022-12-03T20:14:05.336Z,16.65
2022-12-03T20:16:33.034Z,14.13
2022-12-03T20:19:02.899Z,18.90
2022-12-03T20:21:32.446Z,13.73
2022-12-03T20:23:59.642Z,17.17
2022-12-03T20:26:27.771Z,15.18
2022-12-03T20:28:55.970Z,15.18
2022-12-03T20:31:25.633Z,15.55
2022-12-03T20:33:57.054Z,16.67
2022-12-03T20:36:25.441Z,20.20
2022-12-03T20:38:58.159Z,16.40
2022-12-03T20:41:25.793Z,16.58
2022-12-03T20:43:53.897Z,14.52
2022-12-03T20:46:26.517Z,15.05
2022-12-03T20:48:54.326Z,18.15
2022-12-03T20:51:23.851Z,12.93
2022-12-03T20:53:51.125Z,15.48
2022-12-03T20:56:31.436Z,13.85
2022-12-03T20:59:07.436Z,19.70
2022-12-03T21:01:36.312Z,16.75
2022-12-03T21:04:05.019Z,16.27
2022-12-03T21:06:34.261Z,16.45
2022-12-03T21:09:01.619Z,15.40
2022-12-03T21:11:31.381Z,18.42
2022-12-03T21:13:59.544Z,22.30
2022-12-03T21:16:59.020Z,17.10
2022-12-03T21:19:18.709Z,24.83
2022-12-03T21:21:46.171Z,23.08
2022-12-03T21:24:13.778Z,19.95
2022-12-03T21:26:41.706Z,19.60
2022-12-03T21:29:08.947Z,20.17
2022-12-03T21:31:37.483Z,14.55
2022-12-03T21:34:05.222Z,16.88
2022-12-03T21:36:32.568Z,15.15
2022-12-03T21:38:59.745Z,28.30
2022-12-03T21:41:26.797Z,15.00
2022-12-03T21:43:54.110Z,19.90
2022-12-03T21:47:09.313Z,16.42
2022-12-03T21:49:08.246Z,16.60
2022-12-03T21:51:35.366Z,20.95
2022-12-03T21:54:02.541Z,16.77
2022-12-03T21:56:31.901Z,19.98
2022-12-03T21:58:59.181Z,15.93
2022-12-03T22:01:26.510Z,20.58
2022-12-03T22:03:53.635Z,16.52
2022-12-03T22:06:21.569Z,20.75
2022-12-03T22:08:49.066Z,22.42
2022-12-03T22:11:18.973Z,22.10
2022-12-03T22:16:17.077Z,19.55
2022-12-03T22:18:44.466Z,14.68
2022-12-03T22:21:17.012Z,18.10
2022-12-03T22:23:44.071Z,17.92
2022-12-03T22:26:13.540Z,20.67
2022-12-03T22:28:48.747Z,17.42
2022-12-03T22:31:17.599Z,15.95
2022-12-03T22:33:48.401Z,18.45
2022-12-03T22:36:20.882Z,15.82
2022-12-03T22:38:51.604Z,14.82
2022-12-03T22:41:19.355Z,18.65
2022-12-03T22:43:47.543Z,15.13
2022-12-03T22:46:15.080Z,15.32
2022-12-03T22:48:43.622Z,15.30
2022-12-03T22:51:20.082Z,17.63
2022-12-03T22:53:47.390Z,15.57
2022-12-03T22:56:14.681Z,17.38
2022-12-03T22:58:41.699Z,16.45
2022-12-03T23:01:09.016Z,15.27
2022-12-03T23:03:36.902Z,18.17
2022-12-03T23:06:11.016Z,14.13
2022-12-03T23:08:38.398Z,13.18
2022-12-03T23:11:05.843Z,16.15
2022-12-03T23:13:32.953Z,16.15
2022-12-03T23:16:00.063Z,18.10
2022-12-03T23:18:27.527Z,12.88
2022-12-03T23:20:57.070Z,14.95
2022-12-03T23:23:26.167Z,17.27
2022-12-03T23:26:05.491Z,16.55
2022-12-03T23:28:35.215Z,13.70
2022-12-03T23:31:03.342Z,14.82
2022-12-03T23:33:36.684Z,15.23
2022-12-03T23:36:08.055Z,17.17
2022-12-03T23:38:35.062Z,14.45
2022-12-03T23:41:06.684Z,18.50
2022-12-03T23:43:33.733Z,19.25
2022-12-03T23:46:09.878Z,19.55
2022-12-03T23:48:37.121Z,20.55
2022-12-03T23:51:13.487Z,17.73
2022-12-03T23:53:41.408Z,18.83
2022-12-03T23:56:11.383Z,19.60
2022-12-03T23:58:38.814Z,17.90
